sensor_id;sensor_type;location;lat;lon;timestamp;P1;P2;P0
13030;PMS7003;6582;54.644;9.760;2023-05-02T00:00:03;96.2;90.7;
13030;PMS7003;6582;54.644;9.760;2023-05-02T00:05:06;99.7;95.2;
13030;PMS7003;6582;54.644;9.760;2023-05-02T00:10:03;101.1;98.0;
13030;PMS7003;6582;54.644;9.760;2023-05-02T00:15:01;101.3;98.8;
13030;PMS7003;6582;54.644;9.760;2023-05-02T00:20:02;102.8;100.8;
13030;PMS7003;6582;54.644;9.760;2023-05-02T00:25:01;116.4;114.8;
13030;PMS7003;6582;54.644;9.760;2023-05-02T00:30:03;127.7;126.7;
13030;PMS7003;6582;54.644;9.760;2023-05-02T00:35:01;121.2;117.5;
13030;PMS7003;6582;54.644;9.760;2023-05-02T00:40:07;117.6;111.4;
13030;PMS7003;6582;54.644;9.760;2023-05-02T00:45:06;111.4;103.0;
13030;PMS7003;6582;54.644;9.760;2023-05-02T00:50:03;94.2;83.1;
13030;PMS7003;6582;54.644;9.760;2023-05-02T00:55:06;78.5;65.1;
13030;PMS7003;6582;54.644;9.760;2023-05-02T01:00:02;80.3;66.8;
13030;PMS7003;6582;54.644;9.760;2023-05-02T01:05:14;81.2;67.8;
13030;PMS7003;6582;54.644;9.760;2023-05-02T01:10:07;67.0;56.1;
13030;PMS7003;6582;54.644;9.760;2023-05-02T01:15:03;64.6;54.0;
13030;PMS7003;6582;54.644;9.760;2023-05-02T01:20:04;64.8;54.2;
13030;PMS7003;6582;54.644;9.760;2023-05-02T01:25:17;63.8;53.3;
13030;PMS7003;6582;54.644;9.760;2023-05-02T01:30:02;61.6;51.4;
13030;PMS7003;6582;54.644;9.760;2023-05-02T01:35:07;73.6;62.0;
13030;PMS7003;6582;54.644;9.760;2023-05-02T01:40:03;73.2;61.6;
13030;PMS7003;6582;54.644;9.760;2023-05-02T01:45:02;65.6;56.1;
13030;PMS7003;6582;54.644;9.760;2023-05-02T01:50:02;55.9;49.1;
13030;PMS7003;6582;54.644;9.760;2023-05-02T01:55:01;48.8;44.4;
13030;PMS7003;6582;54.644;9.760;2023-05-02T02:00:03;38.2;35.3;
13030;PMS7003;6582;54.644;9.760;2023-05-02T02:05:02;24.6;24.0;
13030;PMS7003;6582;54.644;9.760;2023-05-02T02:10:02;15.7;15.6;
13030;PMS7003;6582;54.644;9.760;2023-05-02T02:15:05;9.9;9.8;
13030;PMS7003;6582;54.644;9.760;2023-05-02T09:50:01;3.4;3.4;
13030;PMS7003;6582;54.644;9.760;2023-05-02T09:55:16;3.1;3.1;
13030;PMS7003;6582;54.644;9.760;2023-05-02T10:20:03;2.4;2.4;
13030;PMS7003;6582;54.644;9.760;2023-05-02T10:25:07;9.3;9.3;
13030;PMS7003;6582;54.644;9.760;2023-05-02T10:30:06;8.6;8.6;
13030;PMS7003;6582;54.644;9.760;2023-05-02T10:35:07;9.9;9.9;
13030;PMS7003;6582;54.644;9.760;2023-05-02T10:40:02;10.0;10.0;
13030;PMS7003;6582;54.644;9.760;2023-05-02T10:45:02;9.0;9.0;
13030;PMS7003;6582;54.644;9.760;2023-05-02T10:50:02;4.5;4.5;
13030;PMS7003;6582;54.644;9.760;2023-05-02T11:15:03;18.4;18.4;
13030;PMS7003;6582;54.644;9.760;2023-05-02T11:20:17;10.7;10.7;
13030;PMS7003;6582;54.644;9.760;2023-05-02T11:25:03;7.3;7.3;
13030;PMS7003;6582;54.644;9.760;2023-05-02T11:30:03;5.7;5.7;
13030;PMS7003;6582;54.644;9.760;2023-05-02T11:35:03;5.4;5.4;
13030;PMS7003;6582;54.644;9.760;2023-05-02T11:40:10;2.2;2.2;
13030;PMS7003;6582;54.644;9.760;2023-05-02T11:45:02;1.6;1.6;
13030;PMS7003;6582;54.644;9.760;2023-05-02T11:50:03;1.5;1.5;
13030;PMS7003;6582;54.644;9.760;2023-05-02T11:55:04;6.4;6.2;
13030;PMS7003;6582;54.644;9.760;2023-05-02T12:00:06;9.6;9.5;
13030;PMS7003;6582;54.644;9.760;2023-05-02T12:05:03;16.4;16.0;
13030;PMS7003;6582;54.644;9.760;2023-05-02T12:10:03;22.6;22.0;
13030;PMS7003;6582;54.644;9.760;2023-05-02T12:15:03;33.8;31.6;
13030;PMS7003;6582;54.644;9.760;2023-05-02T12:20:02;35.7;33.2;
13030;PMS7003;6582;54.644;9.760;2023-05-02T12:25:07;42.9;38.8;
13030;PMS7003;6582;54.644;9.760;2023-05-02T12:30:04;44.9;39.7;
13030;PMS7003;6582;54.644;9.760;2023-05-02T12:35:19;38.7;33.7;
13030;PMS7003;6582;54.644;9.760;2023-05-02T12:40:02;28.3;25.0;
13030;PMS7003;6582;54.644;9.760;2023-05-02T12:45:02;23.1;20.1;
13030;PMS7003;6582;54.644;9.760;2023-05-02T12:50:07;15.2;13.9;
13030;PMS7003;6582;54.644;9.760;2023-05-02T13:15:03;6.8;6.8;
13030;PMS7003;6582;54.644;9.760;2023-05-02T13:20:09;20.5;19.5;
13030;PMS7003;6582;54.644;9.760;2023-05-02T13:25:02;33.6;29.6;
13030;PMS7003;6582;54.644;9.760;2023-05-02T13:30:08;32.4;29.3;
13030;PMS7003;6582;54.644;9.760;2023-05-02T13:35:02;29.6;27.1;
13030;PMS7003;6582;54.644;9.760;2023-05-02T13:40:08;33.3;30.8;
13030;PMS7003;6582;54.644;9.760;2023-05-02T13:45:07;37.5;33.8;
13030;PMS7003;6582;54.644;9.760;2023-05-02T13:50:03;31.8;29.8;
13030;PMS7003;6582;54.644;9.760;2023-05-02T13:55:02;30.3;28.4;
13030;PMS7003;6582;54.644;9.760;2023-05-02T14:00:03;27.6;25.7;
13030;PMS7003;6582;54.644;9.760;2023-05-02T14:05:02;29.5;27.3;
13030;PMS7003;6582;54.644;9.760;2023-05-02T14:10:03;30.5;28.1;
13030;PMS7003;6582;54.644;9.760;2023-05-02T14:15:02;24.8;22.7;
13030;PMS7003;6582;54.644;9.760;2023-05-02T14:20:03;23.6;21.6;
13030;PMS7003;6582;54.644;9.760;2023-05-02T14:25:02;30.4;27.9;
13030;PMS7003;6582;54.644;9.760;2023-05-02T14:30:03;23.4;21.2;
13030;PMS7003;6582;54.644;9.760;2023-05-02T14:35:08;12.5;12.1;
13030;PMS7003;6582;54.644;9.760;2023-05-02T14:40:03;13.6;13.2;
13030;PMS7003;6582;54.644;9.760;2023-05-02T14:45:07;16.1;15.6;
13030;PMS7003;6582;54.644;9.760;2023-05-02T14:50:02;11.4;11.2;
13030;PMS7003;6582;54.644;9.760;2023-05-02T14:55:02;11.7;11.6;
13030;PMS7003;6582;54.644;9.760;2023-05-02T15:00:04;13.6;13.4;
13030;PMS7003;6582;54.644;9.760;2023-05-02T15:05:02;14.4;14.3;
13030;PMS7003;6582;54.644;9.760;2023-05-02T15:10:02;12.5;12.5;
13030;PMS7003;6582;54.644;9.760;2023-05-02T15:15:02;9.4;9.4;
13030;PMS7003;6582;54.644;9.760;2023-05-02T15:20:03;12.6;12.6;
13030;PMS7003;6582;54.644;9.760;2023-05-02T15:25:06;14.2;14.2;
13030;PMS7003;6582;54.644;9.760;2023-05-02T15:30:03;12.3;12.3;
13030;PMS7003;6582;54.644;9.760;2023-05-02T15:35:04;8.9;8.9;
13030;PMS7003;6582;54.644;9.760;2023-05-02T15:40:03;9.1;9.1;
13030;PMS7003;6582;54.644;9.760;2023-05-02T15:45:02;7.4;7.4;
13030;PMS7003;6582;54.644;9.760;2023-05-02T15:50:02;7.8;7.8;
13030;PMS7003;6582;54.644;9.760;2023-05-02T15:55:02;8.0;8.0;
13030;PMS7003;6582;54.644;9.760;2023-05-02T16:00:04;10.9;10.9;
13030;PMS7003;6582;54.644;9.760;2023-05-02T16:05:02;12.8;12.8;
13030;PMS7003;6582;54.644;9.760;2023-05-02T16:10:03;13.3;13.3;
13030;PMS7003;6582;54.644;9.760;2023-05-02T16:15:04;12.5;12.5;
13030;PMS7003;6582;54.644;9.760;2023-05-02T16:20:03;14.2;14.0;
13030;PMS7003;6582;54.644;9.760;2023-05-02T16:25:02;12.5;12.3;
13030;PMS7003;6582;54.644;9.760;2023-05-02T16:30:03;15.3;15.0;
13030;PMS7003;6582;54.644;9.760;2023-05-02T16:35:03;18.8;18.4;
13030;PMS7003;6582;54.644;9.760;2023-05-02T16:40:04;20.4;19.9;
13030;PMS7003;6582;54.644;9.760;2023-05-02T16:45:02;25.1;24.5;
13030;PMS7003;6582;54.644;9.760;2023-05-02T16:50:03;31.2;30.2;
13030;PMS7003;6582;54.644;9.760;2023-05-02T16:55:02;30.9;29.9;
13030;PMS7003;6582;54.644;9.760;2023-05-02T17:00:07;28.8;28.0;
13030;PMS7003;6582;54.644;9.760;2023-05-02T17:05:02;32.4;30.7;
13030;PMS7003;6582;54.644;9.760;2023-05-02T17:10:03;25.9;24.5;
13030;PMS7003;6582;54.644;9.760;2023-05-02T17:15:05;21.4;20.4;
13030;PMS7003;6582;54.644;9.760;2023-05-02T17:20:03;17.5;16.5;
13030;PMS7003;6582;54.644;9.760;2023-05-02T17:25:02;15.4;14.4;
13030;PMS7003;6582;54.644;9.760;2023-05-02T17:30:03;10.6;10.6;
13030;PMS7003;6582;54.644;9.760;2023-05-02T17:35:02;13.6;13.6;
13030;PMS7003;6582;54.644;9.760;2023-05-02T17:40:03;13.4;13.4;
13030;PMS7003;6582;54.644;9.760;2023-05-02T17:45:02;16.2;16.2;
13030;PMS7003;6582;54.644;9.760;2023-05-02T17:50:03;19.0;19.0;
13030;PMS7003;6582;54.644;9.760;2023-05-02T17:55:07;14.3;14.3;
13030;PMS7003;6582;54.644;9.760;2023-05-02T18:00:03;17.3;17.1;
13030;PMS7003;6582;54.644;9.760;2023-05-02T18:05:04;18.4;18.2;
13030;PMS7003;6582;54.644;9.760;2023-05-02T18:10:03;28.6;26.0;
13030;PMS7003;6582;54.644;9.760;2023-05-02T18:15:02;38.8;33.8;
13030;PMS7003;6582;54.644;9.760;2023-05-02T18:20:03;53.3;46.0;
13030;PMS7003;6582;54.644;9.760;2023-05-02T18:25:03;62.5;52.7;
13030;PMS7003;6582;54.644;9.760;2023-05-02T18:30:02;73.6;61.2;
13030;PMS7003;6582;54.644;9.760;2023-05-02T18:35:06;72.9;61.0;
13030;PMS7003;6582;54.644;9.760;2023-05-02T18:40:02;73.0;61.0;
13030;PMS7003;6582;54.644;9.760;2023-05-02T18:45:03;70.7;59.1;
13030;PMS7003;6582;54.644;9.760;2023-05-02T18:50:02;67.5;56.7;
13030;PMS7003;6582;54.644;9.760;2023-05-02T18:55:02;66.4;56.0;
13030;PMS7003;6582;54.644;9.760;2023-05-02T19:00:03;62.4;53.1;
13030;PMS7003;6582;54.644;9.760;2023-05-02T19:05:04;54.9;47.7;
13030;PMS7003;6582;54.644;9.760;2023-05-02T19:10:02;49.0;43.6;
13030;PMS7003;6582;54.644;9.760;2023-05-02T19:15:04;43.9;40.0;
13030;PMS7003;6582;54.644;9.760;2023-05-02T19:35:02;75.0;62.2;
13030;PMS7003;6582;54.644;9.760;2023-05-02T19:40:01;72.4;60.5;
13030;PMS7003;6582;54.644;9.760;2023-05-02T19:45:02;73.3;61.2;
13030;PMS7003;6582;54.644;9.760;2023-05-02T19:50:01;55.1;46.0;
13030;PMS7003;6582;54.644;9.760;2023-05-02T19:55:02;53.9;45.8;
13030;PMS7003;6582;54.644;9.760;2023-05-02T20:00:04;49.7;43.1;
13030;PMS7003;6582;54.644;9.760;2023-05-02T20:05:01;49.5;42.9;
13030;PMS7003;6582;54.644;9.760;2023-05-02T20:10:02;48.0;42.0;
13030;PMS7003;6582;54.644;9.760;2023-05-02T20:15:06;60.4;52.6;
13030;PMS7003;6582;54.644;9.760;2023-05-02T20:20:04;62.3;53.8;
13030;PMS7003;6582;54.644;9.760;2023-05-02T20:25:01;61.2;53.0;
13030;PMS7003;6582;54.644;9.760;2023-05-02T20:30:02;57.1;50.1;
13030;PMS7003;6582;54.644;9.760;2023-05-02T20:35:01;49.1;43.1;
13030;PMS7003;6582;54.644;9.760;2023-05-02T20:40:02;44.0;39.6;
13030;PMS7003;6582;54.644;9.760;2023-05-02T20:45:01;37.3;34.4;
13030;PMS7003;6582;54.644;9.760;2023-05-02T20:50:07;31.9;29.8;
13030;PMS7003;6582;54.644;9.760;2023-05-02T20:55:01;32.6;30.4;
13030;PMS7003;6582;54.644;9.760;2023-05-02T21:00:02;40.1;36.9;
13030;PMS7003;6582;54.644;9.760;2023-05-02T21:05:01;39.9;37.0;
13030;PMS7003;6582;54.644;9.760;2023-05-02T21:10:02;44.4;40.8;
13030;PMS7003;6582;54.644;9.760;2023-05-02T21:15:01;49.6;45.2;
13030;PMS7003;6582;54.644;9.760;2023-05-02T21:20:03;45.6;42.2;
13030;PMS7003;6582;54.644;9.760;2023-05-02T21:25:01;39.8;38.1;
13030;PMS7003;6582;54.644;9.760;2023-05-02T21:30:02;39.3;37.4;
13030;PMS7003;6582;54.644;9.760;2023-05-02T21:35:02;36.8;35.4;
13030;PMS7003;6582;54.644;9.760;2023-05-02T21:40:07;36.0;34.6;
13030;PMS7003;6582;54.644;9.760;2023-05-02T21:45:01;33.6;32.2;
13030;PMS7003;6582;54.644;9.760;2023-05-02T21:50:02;26.9;25.8;
13030;PMS7003;6582;54.644;9.760;2023-05-02T21:55:01;20.7;19.8;
13030;PMS7003;6582;54.644;9.760;2023-05-02T22:00:02;26.6;24.0;
13030;PMS7003;6582;54.644;9.760;2023-05-02T22:05:01;29.8;26.5;
13030;PMS7003;6582;54.644;9.760;2023-05-02T22:10:02;33.1;29.5;
13030;PMS7003;6582;54.644;9.760;2023-05-02T22:15:04;43.2;38.5;
13030;PMS7003;6582;54.644;9.760;2023-05-02T22:20:02;49.8;44.8;
13030;PMS7003;6582;54.644;9.760;2023-05-02T22:25:11;45.6;41.9;
13030;PMS7003;6582;54.644;9.760;2023-05-02T22:30:02;33.6;31.4;
13030;PMS7003;6582;54.644;9.760;2023-05-02T22:35:01;30.0;28.0;
13030;PMS7003;6582;54.644;9.760;2023-05-02T22:40:02;20.7;19.7;
13030;PMS7003;6582;54.644;9.760;2023-05-02T22:45:01;16.5;15.7;
13030;PMS7003;6582;54.644;9.760;2023-05-02T22:50:03;8.8;8.6;
13030;PMS7003;6582;54.644;9.760;2023-05-02T23:00:03;5.2;5.1;
13030;PMS7003;6582;54.644;9.760;2023-05-02T23:05:01;4.0;4.0;
13030;PMS7003;6582;54.644;9.760;2023-05-02T23:20:02;2.6;2.6;
13030;PMS7003;6582;54.644;9.760;2023-05-02T23:25:01;7.6;7.6;
13030;PMS7003;6582;54.644;9.760;2023-05-02T23:30:02;11.7;11.7;
13030;PMS7003;6582;54.644;9.760;2023-05-02T23:35:02;15.6;15.6;
13030;PMS7003;6582;54.644;9.760;2023-05-02T23:40:03;16.1;16.1;
13030;PMS7003;6582;54.644;9.760;2023-05-02T23:45:01;15.9;15.9;
13030;PMS7003;6582;54.644;9.760;2023-05-02T23:50:03;11.0;11.0;
13030;PMS7003;6582;54.644;9.760;2023-05-02T23:55:01;7.1;7.1;
